sensor_id;sensor_type;location;lat;lon;timestamp;temperature;humidity
63960;DHT22;50136;51.374;0.096;2022-12-19T00:05:43;9.50;99.90
63960;DHT22;50136;51.374;0.096;2022-12-19T00:15:45;9.80;99.90
63960;DHT22;50136;51.374;0.096;2022-12-19T00:25:49;10.00;99.90
63960;DHT22;50136;51.374;0.096;2022-12-19T00:35:56;10.10;99.90
63960;DHT22;50136;51.374;0.096;2022-12-19T00:46:02;10.20;99.90
63960;DHT22;50136;51.374;0.096;2022-12-19T00:56:06;10.30;99.90
63960;DHT22;50136;51.374;0.096;2022-12-19T01:06:10;10.50;99.90
63960;DHT22;50136;51.374;0.096;2022-12-19T01:16:12;10.60;99.90
63960;DHT22;50136;51.374;0.096;2022-12-19T01:26:16;10.70;99.90
63960;DHT22;50136;51.374;0.096;2022-12-19T01:36:18;10.80;99.90
63960;DHT22;50136;51.374;0.096;2022-12-19T01:46:25;11.00;99.90
63960;DHT22;50136;51.374;0.096;2022-12-19T01:56:31;11.00;99.90
63960;DHT22;50136;51.374;0.096;2022-12-19T02:16:45;11.10;99.90
63960;DHT22;50136;51.374;0.096;2022-12-19T02:26:57;11.10;99.90
63960;DHT22;50136;51.374;0.096;2022-12-19T02:37:05;11.20;99.90
63960;DHT22;50136;51.374;0.096;2022-12-19T02:47:08;11.30;99.90
63960;DHT22;50136;51.374;0.096;2022-12-19T02:57:17;11.40;99.90
63960;DHT22;50136;51.374;0.096;2022-12-19T03:07:28;11.40;99.90
63960;DHT22;50136;51.374;0.096;2022-12-19T03:17:35;11.40;99.90
63960;DHT22;50136;51.374;0.096;2022-12-19T03:27:38;11.30;99.90
63960;DHT22;50136;51.374;0.096;2022-12-19T03:37:43;11.30;99.90
63960;DHT22;50136;51.374;0.096;2022-12-19T03:47:48;11.30;99.90
63960;DHT22;50136;51.374;0.096;2022-12-19T03:57:57;11.40;99.90
63960;DHT22;50136;51.374;0.096;2022-12-19T04:08:03;11.30;99.90
63960;DHT22;50136;51.374;0.096;2022-12-19T04:18:10;11.40;99.90
63960;DHT22;50136;51.374;0.096;2022-12-19T04:28:15;11.40;99.90
63960;DHT22;50136;51.374;0.096;2022-12-19T04:38:23;11.40;99.90
63960;DHT22;50136;51.374;0.096;2022-12-19T04:48:25;11.50;99.90
63960;DHT22;50136;51.374;0.096;2022-12-19T04:58:28;11.50;99.90
63960;DHT22;50136;51.374;0.096;2022-12-19T05:08:30;11.50;99.90
63960;DHT22;50136;51.374;0.096;2022-12-19T05:18:34;11.60;99.90
63960;DHT22;50136;51.374;0.096;2022-12-19T05:28:36;11.60;99.90
63960;DHT22;50136;51.374;0.096;2022-12-19T05:38:40;11.60;99.90
63960;DHT22;50136;51.374;0.096;2022-12-19T05:48:42;11.60;99.90
63960;DHT22;50136;51.374;0.096;2022-12-19T05:58:46;11.70;99.90
63960;DHT22;50136;51.374;0.096;2022-12-19T06:08:51;11.80;99.90
63960;DHT22;50136;51.374;0.096;2022-12-19T06:18:55;11.70;99.90
63960;DHT22;50136;51.374;0.096;2022-12-19T06:28:57;11.70;99.90
63960;DHT22;50136;51.374;0.096;2022-12-19T06:39:00;11.60;99.90
63960;DHT22;50136;51.374;0.096;2022-12-19T06:49:02;11.70;99.90
63960;DHT22;50136;51.374;0.096;2022-12-19T06:59:06;11.70;99.90
63960;DHT22;50136;51.374;0.096;2022-12-19T07:09:08;11.80;99.90
63960;DHT22;50136;51.374;0.096;2022-12-19T07:19:13;11.80;99.90
63960;DHT22;50136;51.374;0.096;2022-12-19T07:29:15;11.80;99.90
63960;DHT22;50136;51.374;0.096;2022-12-19T07:39:19;11.80;99.90
63960;DHT22;50136;51.374;0.096;2022-12-19T07:49:21;11.90;99.90
63960;DHT22;50136;51.374;0.096;2022-12-19T07:59:25;11.80;99.90
63960;DHT22;50136;51.374;0.096;2022-12-19T08:09:35;11.80;99.90
63960;DHT22;50136;51.374;0.096;2022-12-19T08:19:38;11.70;99.90
63960;DHT22;50136;51.374;0.096;2022-12-19T08:29:40;11.80;99.90
63960;DHT22;50136;51.374;0.096;2022-12-19T08:39:43;11.80;99.90
63960;DHT22;50136;51.374;0.096;2022-12-19T08:49:45;11.80;99.90
63960;DHT22;50136;51.374;0.096;2022-12-19T08:59:48;11.90;99.90
63960;DHT22;50136;51.374;0.096;2022-12-19T09:09:51;11.90;99.90
63960;DHT22;50136;51.374;0.096;2022-12-19T09:19:55;11.90;99.90
63960;DHT22;50136;51.374;0.096;2022-12-19T09:29:57;12.00;99.90
63960;DHT22;50136;51.374;0.096;2022-12-19T09:40:01;12.00;99.90
63960;DHT22;50136;51.374;0.096;2022-12-19T09:50:16;12.10;99.90
63960;DHT22;50136;51.374;0.096;2022-12-19T10:00:28;12.10;99.90
63960;DHT22;50136;51.374;0.096;2022-12-19T10:10:41;12.10;99.90
63960;DHT22;50136;51.374;0.096;2022-12-19T10:21:14;12.10;99.90
63960;DHT22;50136;51.374;0.096;2022-12-19T10:31:22;12.00;99.90
63960;DHT22;50136;51.374;0.096;2022-12-19T10:41:31;12.00;99.90
63960;DHT22;50136;51.374;0.096;2022-12-19T10:51:34;12.10;99.90
63960;DHT22;50136;51.374;0.096;2022-12-19T11:01:38;12.10;99.90
63960;DHT22;50136;51.374;0.096;2022-12-19T11:11:40;12.20;99.90
63960;DHT22;50136;51.374;0.096;2022-12-19T11:22:05;12.10;99.90
63960;DHT22;50136;51.374;0.096;2022-12-19T11:32:31;12.20;99.90
63960;DHT22;50136;51.374;0.096;2022-12-19T11:42:49;12.20;99.90
63960;DHT22;50136;51.374;0.096;2022-12-19T11:53:16;12.20;99.90
63960;DHT22;50136;51.374;0.096;2022-12-19T12:03:42;12.10;99.90
63960;DHT22;50136;51.374;0.096;2022-12-19T12:14:14;12.20;99.90
63960;DHT22;50136;51.374;0.096;2022-12-19T12:24:45;12.20;99.90
63960;DHT22;50136;51.374;0.096;2022-12-19T12:35:18;12.30;99.90
63960;DHT22;50136;51.374;0.096;2022-12-19T12:45:44;12.40;99.90
63960;DHT22;50136;51.374;0.096;2022-12-19T12:55:47;12.40;99.90
63960;DHT22;50136;51.374;0.096;2022-12-19T13:05:54;12.50;99.90
63960;DHT22;50136;51.374;0.096;2022-12-19T13:26:50;12.60;99.90
63960;DHT22;50136;51.374;0.096;2022-12-19T13:36:53;12.70;99.90
63960;DHT22;50136;51.374;0.096;2022-12-19T13:47:18;12.60;99.90
63960;DHT22;50136;51.374;0.096;2022-12-19T13:57:26;12.70;99.90
63960;DHT22;50136;51.374;0.096;2022-12-19T14:07:37;12.70;99.90
63960;DHT22;50136;51.374;0.096;2022-12-19T14:17:40;12.80;99.90
63960;DHT22;50136;51.374;0.096;2022-12-19T14:27:51;12.60;99.90
63960;DHT22;50136;51.374;0.096;2022-12-19T14:38:18;12.50;99.90
63960;DHT22;50136;51.374;0.096;2022-12-19T14:48:47;12.50;99.90
63960;DHT22;50136;51.374;0.096;2022-12-19T14:59:25;12.50;99.90
63960;DHT22;50136;51.374;0.096;2022-12-19T15:09:30;12.60;99.90
63960;DHT22;50136;51.374;0.096;2022-12-19T15:19:54;12.70;99.90
63960;DHT22;50136;51.374;0.096;2022-12-19T15:29:57;12.70;99.90
63960;DHT22;50136;51.374;0.096;2022-12-19T15:40:00;12.70;99.90
63960;DHT22;50136;51.374;0.096;2022-12-19T15:50:14;12.60;99.90
63960;DHT22;50136;51.374;0.096;2022-12-19T16:00:19;12.40;99.90
63960;DHT22;50136;51.374;0.096;2022-12-19T16:10:24;12.30;99.90
63960;DHT22;50136;51.374;0.096;2022-12-19T16:20:28;12.40;99.90
63960;DHT22;50136;51.374;0.096;2022-12-19T16:30:33;12.40;99.90
63960;DHT22;50136;51.374;0.096;2022-12-19T16:40:35;12.40;99.90
63960;DHT22;50136;51.374;0.096;2022-12-19T16:50:39;12.50;99.90
63960;DHT22;50136;51.374;0.096;2022-12-19T17:00:41;12.50;99.90
63960;DHT22;50136;51.374;0.096;2022-12-19T17:10:46;12.70;99.90
63960;DHT22;50136;51.374;0.096;2022-12-19T17:20:48;12.80;99.90
63960;DHT22;50136;51.374;0.096;2022-12-19T17:30:54;12.80;99.90
63960;DHT22;50136;51.374;0.096;2022-12-19T17:40:56;12.80;99.90
63960;DHT22;50136;51.374;0.096;2022-12-19T17:51:28;12.70;99.90
63960;DHT22;50136;51.374;0.096;2022-12-19T18:01:31;12.60;99.90
63960;DHT22;50136;51.374;0.096;2022-12-19T18:11:36;12.60;99.90
63960;DHT22;50136;51.374;0.096;2022-12-19T18:21:43;12.50;99.90
63960;DHT22;50136;51.374;0.096;2022-12-19T18:31:46;12.60;99.90
63960;DHT22;50136;51.374;0.096;2022-12-19T18:41:52;12.60;99.90
63960;DHT22;50136;51.374;0.096;2022-12-19T18:51:55;12.50;99.90
63960;DHT22;50136;51.374;0.096;2022-12-19T19:01:58;12.50;99.90
63960;DHT22;50136;51.374;0.096;2022-12-19T19:12:01;12.60;99.90
63960;DHT22;50136;51.374;0.096;2022-12-19T19:22:03;12.60;99.90
63960;DHT22;50136;51.374;0.096;2022-12-19T19:32:07;12.50;99.90
63960;DHT22;50136;51.374;0.096;2022-12-19T19:42:09;12.50;99.90
63960;DHT22;50136;51.374;0.096;2022-12-19T19:52:13;12.60;99.90
63960;DHT22;50136;51.374;0.096;2022-12-19T20:02:15;12.60;99.90
63960;DHT22;50136;51.374;0.096;2022-12-19T20:12:19;12.70;99.90
63960;DHT22;50136;51.374;0.096;2022-12-19T20:22:21;12.70;99.90
63960;DHT22;50136;51.374;0.096;2022-12-19T20:32:24;12.60;99.90
63960;DHT22;50136;51.374;0.096;2022-12-19T20:42:26;12.60;99.90
63960;DHT22;50136;51.374;0.096;2022-12-19T20:52:30;12.60;99.90
63960;DHT22;50136;51.374;0.096;2022-12-19T21:02:32;12.70;99.90
63960;DHT22;50136;51.374;0.096;2022-12-19T21:12:55;12.70;99.90
63960;DHT22;50136;51.374;0.096;2022-12-19T21:22:57;12.90;99.90
63960;DHT22;50136;51.374;0.096;2022-12-19T21:33:00;13.00;99.90
63960;DHT22;50136;51.374;0.096;2022-12-19T21:43:02;12.90;99.90
63960;DHT22;50136;51.374;0.096;2022-12-19T21:53:13;12.90;99.90
63960;DHT22;50136;51.374;0.096;2022-12-19T22:03:15;12.90;99.90
63960;DHT22;50136;51.374;0.096;2022-12-19T22:13:19;12.70;99.90
63960;DHT22;50136;51.374;0.096;2022-12-19T22:34:26;12.70;99.90
63960;DHT22;50136;51.374;0.096;2022-12-19T22:44:28;12.60;99.90
63960;DHT22;50136;51.374;0.096;2022-12-19T22:54:31;12.60;99.90
63960;DHT22;50136;51.374;0.096;2022-12-19T23:04:33;12.60;99.90
63960;DHT22;50136;51.374;0.096;2022-12-19T23:14:37;12.80;99.90
63960;DHT22;50136;51.374;0.096;2022-12-19T23:24:39;12.70;99.90
63960;DHT22;50136;51.374;0.096;2022-12-19T23:34:42;12.70;99.90
63960;DHT22;50136;51.374;0.096;2022-12-19T23:44:44;12.80;99.90
63960;DHT22;50136;51.374;0.096;2022-12-19T23:54:47;12.70;99.90
